createdAt,value
2022-11-25T00:01:24.857Z,2.40
2022-11-25T00:03:53.857Z,2.78
2022-11-25T00:06:32.536Z,2.67
2022-11-25T00:09:01.686Z,2.53
2022-11-25T00:11:29.571Z,2.38
2022-11-25T00:14:00.558Z,2.75
2022-11-25T00:16:31.895Z,2.83
2022-11-25T00:19:00.365Z,2.08
2022-11-25T00:21:31.697Z,2.93
2022-11-25T00:24:01.838Z,2.58
2022-11-25T00:26:35.670Z,2.67
2022-11-25T00:29:05.649Z,2.88
2022-11-25T00:31:35.018Z,3.15
2022-11-25T00:34:02.064Z,2.70
2022-11-25T00:36:31.527Z,3.03
2022-11-25T00:39:00.461Z,2.67
2022-11-25T00:41:48.142Z,2.65
2022-11-25T00:44:36.423Z,2.60
2022-11-25T00:47:18.700Z,2.35
2022-11-25T00:49:54.685Z,2.00
2022-11-25T00:52:23.637Z,2.10
2022-11-25T00:54:51.383Z,2.63
2022-11-25T00:57:19.905Z,3.17
2022-11-25T00:59:46.459Z,2.35
2022-11-25T01:02:14.478Z,2.88
2022-11-25T01:04:41.605Z,2.47
2022-11-25T01:07:08.276Z,3.03
2022-11-25T01:09:35.044Z,2.60
2022-11-25T01:12:01.748Z,3.38
2022-11-25T01:14:28.424Z,2.50
2022-11-25T01:16:56.825Z,3.28
2022-11-25T01:19:24.817Z,3.50
2022-11-25T01:21:52.753Z,3.20
2022-11-25T01:24:23.897Z,2.63
2022-11-25T01:26:50.783Z,3.03
2022-11-25T01:29:18.971Z,2.85
2022-11-25T01:31:47.475Z,3.20
2022-11-25T01:34:20.791Z,2.92
2022-11-25T01:36:48.331Z,2.90
2022-11-25T01:39:19.374Z,3.05
2022-11-25T01:41:46.864Z,2.80
2022-11-25T01:44:21.729Z,2.58
2022-11-25T01:46:54.793Z,2.80
2022-11-25T01:49:55.133Z,2.78
2022-11-25T01:52:44.224Z,3.28
2022-11-25T01:55:20.041Z,2.78
2022-11-25T01:57:50.346Z,3.83
2022-11-25T02:00:18.337Z,1.90
2022-11-25T02:02:47.982Z,3.17
2022-11-25T02:05:17.918Z,2.50
2022-11-25T02:07:48.456Z,3.03
2022-11-25T02:10:23.640Z,3.03
2022-11-25T02:12:52.087Z,2.65
2022-11-25T02:17:46.693Z,2.88
2022-11-25T02:20:19.322Z,2.77
2022-11-25T02:22:52.548Z,2.80
2022-11-25T02:25:24.852Z,2.72
2022-11-25T02:28:05.267Z,3.65
2022-11-25T02:30:32.570Z,2.97
2022-11-25T02:33:00.260Z,2.55
2022-11-25T02:35:40.345Z,3.05
2022-11-25T02:38:15.318Z,2.70
2022-11-25T02:40:48.780Z,2.58
2022-11-25T02:43:16.412Z,3.35
2022-11-25T02:45:47.213Z,3.67
2022-11-25T02:48:13.647Z,3.15
2022-11-25T02:50:40.145Z,3.30
2022-11-25T02:53:06.706Z,3.03
2022-11-25T02:55:34.322Z,2.47
2022-11-25T02:58:00.735Z,2.70
2022-11-25T03:00:27.332Z,2.88
2022-11-25T03:02:54.533Z,3.25
2022-11-25T03:05:22.535Z,3.15
2022-11-25T03:07:49.166Z,2.50
2022-11-25T03:10:15.810Z,2.80
2022-11-25T03:12:42.297Z,2.80
2022-11-25T03:15:09.615Z,3.45
2022-11-25T03:17:36.203Z,3.40
2022-11-25T03:20:03.826Z,3.47
2022-11-25T03:22:30.233Z,2.33
2022-11-25T03:24:56.625Z,2.92
2022-11-25T03:27:23.064Z,2.92
2022-11-25T03:29:49.592Z,3.03
2022-11-25T03:32:16.273Z,3.42
2022-11-25T03:34:42.749Z,3.20
2022-11-25T03:37:09.360Z,3.00
2022-11-25T03:39:36.044Z,3.80
2022-11-25T03:42:02.586Z,3.45
2022-11-25T03:44:28.971Z,2.55
2022-11-25T03:46:55.418Z,3.38
2022-11-25T03:49:21.982Z,3.50
2022-11-25T03:51:48.780Z,3.40
2022-11-25T03:54:15.239Z,2.75
2022-11-25T03:56:42.116Z,2.67
2022-11-25T03:59:08.695Z,2.88
2022-11-25T04:01:35.910Z,3.80
2022-11-25T04:04:04.532Z,3.55
2022-11-25T04:06:32.072Z,3.00
2022-11-25T04:09:00.117Z,3.20
2022-11-25T04:11:46.539Z,3.28
2022-11-25T04:14:13.806Z,3.13
2022-11-25T04:16:40.367Z,3.50
2022-11-25T04:19:06.871Z,3.95
2022-11-25T04:21:33.307Z,3.95
2022-11-25T04:23:59.747Z,3.97
2022-11-25T04:26:26.214Z,3.95
2022-11-25T04:28:53.109Z,3.70
2022-11-25T04:31:19.730Z,4.03
2022-11-25T04:33:52.207Z,3.60
2022-11-25T04:36:19.152Z,4.40
2022-11-25T04:38:45.570Z,3.80
2022-11-25T04:41:11.985Z,3.55
2022-11-25T04:43:41.550Z,3.83
2022-11-25T04:46:16.370Z,3.83
2022-11-25T04:48:42.896Z,4.00
2022-11-25T04:51:09.649Z,4.03
2022-11-25T04:53:36.111Z,3.90
2022-11-25T04:56:02.615Z,3.92
2022-11-25T04:58:47.815Z,3.95
2022-11-25T05:01:14.396Z,5.25
2022-11-25T05:03:46.247Z,3.97
2022-11-25T05:06:15.409Z,3.53
2022-11-25T05:08:41.915Z,3.80
2022-11-25T05:11:08.402Z,3.53
2022-11-25T05:13:34.864Z,3.85
2022-11-25T05:16:01.363Z,3.03
2022-11-25T05:18:27.823Z,3.58
2022-11-25T05:20:54.201Z,3.90
2022-11-25T05:23:20.694Z,3.40
2022-11-25T05:25:47.191Z,3.72
2022-11-25T05:28:13.607Z,4.38
2022-11-25T05:30:40.350Z,3.55
2022-11-25T05:33:06.806Z,2.97
2022-11-25T05:35:33.254Z,3.58
2022-11-25T05:38:01.042Z,4.00
2022-11-25T05:40:27.431Z,4.03
2022-11-25T05:42:53.861Z,3.75
2022-11-25T05:45:20.350Z,3.20
2022-11-25T05:47:46.749Z,3.17
2022-11-25T05:50:13.236Z,3.50
2022-11-25T05:52:39.700Z,3.20
2022-11-25T05:55:06.772Z,3.22
2022-11-25T05:57:33.187Z,3.20
2022-11-25T05:59:59.640Z,3.40
2022-11-25T06:02:26.202Z,3.22
2022-11-25T06:04:52.734Z,3.10
2022-11-25T06:07:19.276Z,2.78
2022-11-25T06:09:45.774Z,2.58
2022-11-25T06:12:12.215Z,2.70
2022-11-25T06:14:38.826Z,2.72
2022-11-25T06:17:05.432Z,2.78
2022-11-25T06:19:31.855Z,2.58
2022-11-25T06:21:58.313Z,2.58
2022-11-25T06:24:24.822Z,2.88
2022-11-25T06:26:51.196Z,2.88
2022-11-25T06:29:17.559Z,2.45
2022-11-25T06:31:44.034Z,2.30
2022-11-25T06:34:10.599Z,2.47
2022-11-25T06:36:37.128Z,2.40
2022-11-25T06:39:03.704Z,2.13
2022-11-25T06:41:30.111Z,2.50
2022-11-25T06:43:56.600Z,2.00
2022-11-25T06:46:25.394Z,2.30
2022-11-25T06:48:53.412Z,1.88
2022-11-25T06:51:20.609Z,2.45
2022-11-25T06:53:47.697Z,2.05
2022-11-25T06:56:17.004Z,2.35
2022-11-25T06:58:45.012Z,2.08
2022-11-25T07:01:19.756Z,2.40
2022-11-25T07:03:52.199Z,2.85
2022-11-25T07:06:20.139Z,2.30
2022-11-25T07:08:47.748Z,2.35
2022-11-25T07:11:20.623Z,2.80
2022-11-25T07:13:48.095Z,2.80
2022-11-25T07:16:14.905Z,2.72
2022-11-25T07:18:42.241Z,3.08
2022-11-25T07:21:11.614Z,3.38
2022-11-25T07:23:38.999Z,2.80
2022-11-25T07:26:07.763Z,2.90
2022-11-25T07:28:34.982Z,3.05
2022-11-25T07:31:23.699Z,3.50
2022-11-25T07:34:11.633Z,3.60
2022-11-25T07:36:38.094Z,3.92
2022-11-25T07:39:07.820Z,3.30
2022-11-25T07:41:34.759Z,3.22
2022-11-25T07:44:04.249Z,3.88
2022-11-25T07:46:33.798Z,3.65
2022-11-25T07:49:06.956Z,3.38
2022-11-25T07:51:34.769Z,2.97
2022-11-25T07:54:03.407Z,2.58
2022-11-25T07:56:30.154Z,3.05
2022-11-25T07:58:57.266Z,3.28
2022-11-25T08:01:24.479Z,3.67
2022-11-25T08:03:52.184Z,3.28
2022-11-25T08:06:21.838Z,3.50
2022-11-25T08:08:49.315Z,3.78
2022-11-25T08:11:22.133Z,3.17
2022-11-25T08:13:49.155Z,3.47
2022-11-25T08:16:17.859Z,4.20
2022-11-25T08:18:44.709Z,3.42
2022-11-25T08:21:12.799Z,3.45
2022-11-25T08:23:41.246Z,3.08
2022-11-25T08:28:36.477Z,3.08
2022-11-25T08:31:05.386Z,2.87
2022-11-25T08:33:32.002Z,3.47
2022-11-25T08:35:58.533Z,3.15
2022-11-25T08:38:25.025Z,2.92
2022-11-25T08:40:51.631Z,3.10
2022-11-25T08:43:18.400Z,2.10
2022-11-25T08:45:44.989Z,2.90
2022-11-25T08:48:11.402Z,3.25
2022-11-25T08:50:38.592Z,2.90
2022-11-25T08:53:05.136Z,3.33
2022-11-25T08:55:32.814Z,2.95
2022-11-25T08:57:59.200Z,3.03
2022-11-25T09:00:25.740Z,2.90
2022-11-25T09:02:52.231Z,3.25
2022-11-25T09:05:21.143Z,2.88
2022-11-25T09:07:47.592Z,2.67
2022-11-25T09:10:17.048Z,2.25
2022-11-25T09:12:44.122Z,2.17
2022-11-25T09:15:11.022Z,2.50
2022-11-25T09:17:37.594Z,2.67
2022-11-25T09:20:05.419Z,2.22
2022-11-25T09:22:32.741Z,2.17
2022-11-25T09:24:59.183Z,3.13
2022-11-25T09:27:25.655Z,2.30
2022-11-25T09:29:52.209Z,2.92
2022-11-25T09:32:18.675Z,2.30
2022-11-25T09:34:45.234Z,2.20
2022-11-25T09:37:12.114Z,2.20
2022-11-25T09:39:38.923Z,3.00
2022-11-25T09:42:41.001Z,2.35
2022-11-25T09:45:41.098Z,2.25
2022-11-25T09:48:17.362Z,2.05
2022-11-25T09:50:58.835Z,2.30
2022-11-25T09:53:37.422Z,2.20
2022-11-25T09:56:12.948Z,2.40
2022-11-25T09:58:48.007Z,2.40
2022-11-25T10:01:18.353Z,2.50
2022-11-25T10:03:49.039Z,2.13
2022-11-25T10:06:31.108Z,2.90
2022-11-25T10:09:09.107Z,2.47
2022-11-25T10:12:03.361Z,2.20
2022-11-25T10:14:49.373Z,2.20
2022-11-25T10:17:38.280Z,2.30
2022-11-25T10:20:23.829Z,2.70
2022-11-25T10:23:01.927Z,2.15
2022-11-25T10:25:34.359Z,2.00
2022-11-25T10:28:20.598Z,2.70
2022-11-25T10:31:09.419Z,2.53
2022-11-25T10:33:46.609Z,2.47
2022-11-25T10:36:23.687Z,2.40
2022-11-25T10:38:59.147Z,2.35
2022-11-25T10:41:29.713Z,2.15
2022-11-25T10:43:56.769Z,2.40
2022-11-25T10:47:12.133Z,2.08
2022-11-25T10:49:42.892Z,1.92
2022-11-25T10:52:13.948Z,2.45
2022-11-25T10:54:41.318Z,2.70
2022-11-25T10:57:21.252Z,2.50
2022-11-25T10:59:59.112Z,2.50
2022-11-25T11:02:48.322Z,1.98
2022-11-25T11:05:23.165Z,1.75
2022-11-25T11:08:09.143Z,2.28
2022-11-25T11:10:35.840Z,2.22
2022-11-25T11:13:03.698Z,2.50
2022-11-25T11:15:42.352Z,2.03
2022-11-25T11:18:28.356Z,2.38
2022-11-25T11:20:59.392Z,2.03
2022-11-25T11:23:27.378Z,2.70
2022-11-25T11:26:01.949Z,2.38
2022-11-25T11:28:34.936Z,2.55
2022-11-25T11:31:18.033Z,2.40
2022-11-25T11:33:47.584Z,2.00
2022-11-25T11:36:34.302Z,2.28
2022-11-25T11:39:26.468Z,2.17
2022-11-25T11:42:25.225Z,2.17
2022-11-25T11:45:00.717Z,1.90
2022-11-25T11:47:48.995Z,2.10
2022-11-25T11:50:40.059Z,2.33
2022-11-25T11:53:20.825Z,2.35
2022-11-25T11:56:33.764Z,2.47
2022-11-25T11:58:53.228Z,2.42
2022-11-25T12:01:33.763Z,2.17
2022-11-25T12:04:12.531Z,2.25
2022-11-25T12:06:42.599Z,2.38
2022-11-25T12:09:22.876Z,2.72
2022-11-25T12:11:55.234Z,2.63
2022-11-25T12:14:42.934Z,2.22
2022-11-25T12:17:18.473Z,2.33
2022-11-25T12:19:47.523Z,2.22
2022-11-25T12:22:35.161Z,2.30
2022-11-25T12:25:10.505Z,2.60
2022-11-25T12:27:48.316Z,2.03
2022-11-25T12:30:18.966Z,2.47
2022-11-25T12:33:12.547Z,2.55
2022-11-25T12:36:05.783Z,2.15
2022-11-25T12:38:41.767Z,1.92
2022-11-25T12:41:43.804Z,2.05
2022-11-25T12:44:29.065Z,2.45
2022-11-25T12:46:57.387Z,2.15
2022-11-25T12:52:23.590Z,2.13
2022-11-25T12:55:21.067Z,2.20
2022-11-25T12:58:10.126Z,2.00
2022-11-25T13:01:21.392Z,2.80
2022-11-25T13:04:10.052Z,2.17
2022-11-25T13:07:14.874Z,1.80
2022-11-25T13:10:02.623Z,2.15
2022-11-25T13:12:43.848Z,2.08
2022-11-25T13:15:31.472Z,2.35
2022-11-25T13:18:03.617Z,2.38
2022-11-25T13:20:30.082Z,2.83
2022-11-25T13:23:22.427Z,2.30
2022-11-25T13:25:51.456Z,2.55
2022-11-25T13:28:35.719Z,2.28
2022-11-25T13:31:14.443Z,2.00
2022-11-25T13:33:44.356Z,2.33
2022-11-25T13:36:22.680Z,2.15
2022-11-25T13:38:49.112Z,2.40
2022-11-25T13:41:16.013Z,2.35
2022-11-25T13:44:02.150Z,2.63
2022-11-25T13:46:38.627Z,2.38
2022-11-25T13:49:34.236Z,2.72
2022-11-25T13:52:06.065Z,2.80
2022-11-25T13:54:44.237Z,2.45
2022-11-25T13:59:43.152Z,2.35
2022-11-25T14:02:29.917Z,2.17
2022-11-25T14:05:18.094Z,2.78
2022-11-25T14:10:45.615Z,2.15
2022-11-25T14:13:48.014Z,2.60
2022-11-25T14:16:17.546Z,2.15
2022-11-25T14:19:17.300Z,2.80
2022-11-25T14:21:39.326Z,2.40
2022-11-25T14:24:22.170Z,2.53
2022-11-25T14:26:52.266Z,2.50
2022-11-25T14:29:23.840Z,2.80
2022-11-25T14:31:58.352Z,3.13
2022-11-25T14:34:33.507Z,2.42
2022-11-25T14:37:20.138Z,2.30
2022-11-25T14:40:00.545Z,2.78
2022-11-25T14:42:35.017Z,2.72
2022-11-25T14:45:03.128Z,2.63
2022-11-25T14:47:39.105Z,2.30
2022-11-25T14:53:01.031Z,2.20
2022-11-25T14:55:30.783Z,2.80
2022-11-25T14:58:00.476Z,2.30
2022-11-25T15:00:27.508Z,2.70
2022-11-25T15:02:58.255Z,2.38
2022-11-25T15:05:36.292Z,3.05
2022-11-25T15:08:20.192Z,2.67
2022-11-25T15:10:59.002Z,2.58
2022-11-25T15:13:39.964Z,3.08
2022-11-25T15:16:12.487Z,3.05
2022-11-25T15:19:09.400Z,8.35
2022-11-25T15:22:06.967Z,5.82
2022-11-25T15:24:40.358Z,6.30
2022-11-25T15:27:22.155Z,3.55
2022-11-25T15:29:49.572Z,3.65
2022-11-25T15:32:19.312Z,5.33
2022-11-25T15:34:47.289Z,6.78
2022-11-25T15:37:13.966Z,8.35
2022-11-25T15:39:40.630Z,4.95
2022-11-25T15:42:16.561Z,4.43
2022-11-25T15:44:48.891Z,3.38
2022-11-25T15:47:25.601Z,4.22
2022-11-25T15:50:01.132Z,3.20
2022-11-25T15:52:31.693Z,3.50
2022-11-25T15:55:07.655Z,3.45
2022-11-25T15:57:38.717Z,4.15
2022-11-25T16:00:20.856Z,5.93
2022-11-25T16:02:47.381Z,4.90
2022-11-25T16:05:16.930Z,5.00
2022-11-25T16:07:49.859Z,4.78
2022-11-25T16:10:30.797Z,5.13
2022-11-25T16:13:21.121Z,4.28
2022-11-25T16:15:51.249Z,5.13
2022-11-25T16:18:39.382Z,3.97
2022-11-25T16:21:10.935Z,4.20
2022-11-25T16:23:40.251Z,4.03
2022-11-25T16:26:12.736Z,7.85
2022-11-25T16:28:42.569Z,8.55
2022-11-25T16:31:19.055Z,5.53
2022-11-25T16:33:45.751Z,6.57
2022-11-25T16:36:12.212Z,6.07
2022-11-25T16:38:41.573Z,4.82
2022-11-25T16:41:18.482Z,5.75
2022-11-25T16:43:44.937Z,9.70
2022-11-25T16:46:15.738Z,9.23
2022-11-25T16:48:42.402Z,5.18
2022-11-25T16:51:15.420Z,6.95
2022-11-25T16:53:43.466Z,9.02
2022-11-25T16:56:14.543Z,5.97
2022-11-25T16:58:43.245Z,9.27
2022-11-25T17:01:19.409Z,6.80
2022-11-25T17:03:45.930Z,11.75
2022-11-25T17:06:22.313Z,5.43
2022-11-25T17:08:50.080Z,10.40
2022-11-25T17:11:19.405Z,7.40
2022-11-25T17:13:50.772Z,9.35
2022-11-25T17:16:19.989Z,13.27
2022-11-25T17:18:47.110Z,13.02
2022-11-25T17:21:15.480Z,11.27
2022-11-25T17:26:25.960Z,8.80
2022-11-25T17:28:58.878Z,8.80
2022-11-25T17:31:28.111Z,10.30
2022-11-25T17:33:54.699Z,7.32
2022-11-25T17:36:22.008Z,5.15
2022-11-25T17:38:49.040Z,6.15
2022-11-25T17:41:17.761Z,4.97
2022-11-25T17:43:46.507Z,5.10
2022-11-25T17:46:14.899Z,6.28
2022-11-25T17:51:12.587Z,6.93
2022-11-25T17:53:40.332Z,8.25
2022-11-25T17:56:25.741Z,7.78
2022-11-25T17:58:52.679Z,6.53
2022-11-25T18:01:19.488Z,6.63
2022-11-25T18:03:46.059Z,5.07
2022-11-25T18:06:12.480Z,5.53
2022-11-25T18:08:39.079Z,5.20
2022-11-25T18:11:07.556Z,5.40
2022-11-25T18:16:03.696Z,5.28
2022-11-25T18:18:30.118Z,5.38
2022-11-25T18:20:56.544Z,8.25
2022-11-25T18:23:23.321Z,13.63
2022-11-25T18:25:50.239Z,13.80
2022-11-25T18:28:23.522Z,22.17
2022-11-25T18:30:50.761Z,10.57
2022-11-25T18:33:18.884Z,9.07
2022-11-25T18:35:46.347Z,11.35
2022-11-25T18:38:13.429Z,8.27
2022-11-25T18:40:42.509Z,6.88
2022-11-25T18:46:06.175Z,11.93
2022-11-25T18:48:34.325Z,12.00
2022-11-25T18:51:00.779Z,9.65
2022-11-25T18:53:27.362Z,10.45
2022-11-25T18:55:54.195Z,10.40
2022-11-25T18:58:27.016Z,10.65
2022-11-25T19:00:56.895Z,8.02
2022-11-25T19:03:25.785Z,8.77
2022-11-25T19:05:58.529Z,23.42
2022-11-25T19:08:24.991Z,34.40
2022-11-25T19:10:51.528Z,32.28
2022-11-25T19:13:24.499Z,23.50
2022-11-25T19:15:51.387Z,20.10
2022-11-25T19:18:24.406Z,12.70
2022-11-25T19:20:51.124Z,14.88
2022-11-25T19:23:25.370Z,12.55
2022-11-25T19:25:59.707Z,29.55
2022-11-25T19:28:26.862Z,22.63
2022-11-25T19:30:58.900Z,10.55
2022-11-25T19:33:38.235Z,13.20
2022-11-25T19:36:06.584Z,11.40
2022-11-25T19:38:34.676Z,11.77
2022-11-25T19:41:01.206Z,7.97
2022-11-25T19:43:27.974Z,5.82
2022-11-25T19:45:56.437Z,6.05
2022-11-25T19:48:26.916Z,10.27
2022-11-25T19:50:59.447Z,20.65
2022-11-25T19:53:31.790Z,19.88
2022-11-25T19:56:03.785Z,12.00
2022-11-25T19:58:30.511Z,12.77
2022-11-25T20:01:00.751Z,17.35
2022-11-25T20:03:30.028Z,17.90
2022-11-25T20:05:56.870Z,14.75
2022-11-25T20:08:26.047Z,10.20
2022-11-25T20:10:53.156Z,8.20
2022-11-25T20:13:20.226Z,8.65
2022-11-25T20:15:47.116Z,7.03
2022-11-25T20:18:18.420Z,7.10
2022-11-25T20:20:46.878Z,7.30
2022-11-25T20:23:22.509Z,6.13
2022-11-25T20:25:49.848Z,6.47
2022-11-25T20:28:21.193Z,5.78
2022-11-25T20:30:48.413Z,7.28
2022-11-25T20:33:17.711Z,8.18
2022-11-25T20:35:51.255Z,7.30
2022-11-25T20:38:23.635Z,6.63
2022-11-25T20:40:55.956Z,7.13
2022-11-25T20:43:34.377Z,7.28
2022-11-25T20:46:02.557Z,8.15
2022-11-25T20:48:29.805Z,6.80
2022-11-25T20:51:00.371Z,7.68
2022-11-25T20:53:30.260Z,5.32
2022-11-25T20:55:56.704Z,6.28
2022-11-25T20:58:29.052Z,5.93
2022-11-25T21:00:57.721Z,5.32
2022-11-25T21:03:25.755Z,5.78
2022-11-25T21:05:53.706Z,5.53
2022-11-25T21:08:25.783Z,5.28
2022-11-25T21:10:56.103Z,5.78
2022-11-25T21:13:28.075Z,5.80
2022-11-25T21:15:56.760Z,5.43
2022-11-25T21:18:24.543Z,5.20
2022-11-25T21:20:53.934Z,5.35
2022-11-25T21:23:24.518Z,5.60
2022-11-25T21:25:51.442Z,5.95
2022-11-25T21:28:20.919Z,6.20
2022-11-25T21:30:48.352Z,6.57
2022-11-25T21:33:15.618Z,6.28
2022-11-25T21:35:46.810Z,6.40
2022-11-25T21:38:18.413Z,6.72
2022-11-25T21:40:52.293Z,5.75
2022-11-25T21:43:33.735Z,7.68
2022-11-25T21:46:07.133Z,6.60
2022-11-25T21:48:33.789Z,6.55
2022-11-25T21:51:00.494Z,6.68
2022-11-25T21:53:27.212Z,6.20
2022-11-25T21:55:54.359Z,6.43
2022-11-25T21:58:25.621Z,6.35
2022-11-25T22:00:55.353Z,7.20
2022-11-25T22:03:23.539Z,5.50
2022-11-25T22:05:50.768Z,6.03
2022-11-25T22:08:17.951Z,6.28
2022-11-25T22:10:48.760Z,9.75
2022-11-25T22:13:32.378Z,10.70
2022-11-25T22:15:59.210Z,10.20
2022-11-25T22:18:32.567Z,8.55
2022-11-25T22:20:59.435Z,9.52
2022-11-25T22:23:26.626Z,6.68
2022-11-25T22:25:54.004Z,7.15
2022-11-25T22:28:24.177Z,7.50
2022-11-25T22:30:53.051Z,5.97
2022-11-25T22:33:22.339Z,6.65
2022-11-25T22:35:50.188Z,6.30
2022-11-25T22:38:18.546Z,6.45
2022-11-25T22:40:47.861Z,6.38
2022-11-25T22:43:20.650Z,5.90
2022-11-25T22:45:47.493Z,6.65
2022-11-25T22:48:18.285Z,6.32
2022-11-25T22:50:45.992Z,6.28
2022-11-25T22:53:14.867Z,6.63
2022-11-25T22:55:41.731Z,6.63
2022-11-25T22:58:09.887Z,6.90
2022-11-25T23:00:44.767Z,7.53
2022-11-25T23:03:23.045Z,5.88
2022-11-25T23:05:51.229Z,6.82
2022-11-25T23:08:21.717Z,5.97
2022-11-25T23:10:49.152Z,6.70
2022-11-25T23:13:18.705Z,6.55
2022-11-25T23:15:49.167Z,6.07
2022-11-25T23:18:22.872Z,5.90
2022-11-25T23:20:50.810Z,6.40
2022-11-25T23:23:22.982Z,6.55
2022-11-25T23:25:49.801Z,6.40
2022-11-25T23:28:16.768Z,6.25
2022-11-25T23:30:57.724Z,5.78
2022-11-25T23:33:33.652Z,5.93
2022-11-25T23:36:04.763Z,5.55
2022-11-25T23:38:44.478Z,5.82
2022-11-25T23:41:21.088Z,5.75
2022-11-25T23:43:50.957Z,6.30
2022-11-25T23:46:22.182Z,6.00
2022-11-25T23:48:54.959Z,5.93
2022-11-25T23:51:27.295Z,5.70
2022-11-25T23:53:58.537Z,5.63
2022-11-25T23:56:27.163Z,6.40
2022-11-25T23:58:54.390Z,6.15
